sensor_id;sensor_type;location;lat;lon;timestamp;P1;durP1;ratioP1;P2;durP2;ratioP2
49193;SDS011;35029;50.804;12.866;2023-02-22T00:00:37;7.32;;;6.03;;
49193;SDS011;35029;50.804;12.866;2023-02-22T00:03:13;10.70;;;6.85;;
49193;SDS011;35029;50.804;12.866;2023-02-22T00:05:43;8.02;;;6.20;;
49193;SDS011;35029;50.804;12.866;2023-02-22T00:08:14;8.40;;;6.50;;
49193;SDS011;35029;50.804;12.866;2023-02-22T00:10:41;9.20;;;6.97;;
49193;SDS011;35029;50.804;12.866;2023-02-22T00:13:08;8.32;;;6.40;;
49193;SDS011;35029;50.804;12.866;2023-02-22T00:15:35;7.53;;;5.95;;
49193;SDS011;35029;50.804;12.866;2023-02-22T00:18:02;8.63;;;6.35;;
49193;SDS011;35029;50.804;12.866;2023-02-22T00:20:29;7.32;;;5.90;;
49193;SDS011;35029;50.804;12.866;2023-02-22T00:22:54;8.48;;;6.22;;
49193;SDS011;35029;50.804;12.866;2023-02-22T00:25:20;7.78;;;5.88;;
49193;SDS011;35029;50.804;12.866;2023-02-22T00:27:49;7.43;;;6.07;;
49193;SDS011;35029;50.804;12.866;2023-02-22T00:30:23;8.35;;;6.60;;
49193;SDS011;35029;50.804;12.866;2023-02-22T00:32:52;8.23;;;5.97;;
49193;SDS011;35029;50.804;12.866;2023-02-22T00:35:20;10.13;;;6.97;;
49193;SDS011;35029;50.804;12.866;2023-02-22T00:37:48;9.25;;;7.40;;
49193;SDS011;35029;50.804;12.866;2023-02-22T00:40:16;8.77;;;6.63;;
49193;SDS011;35029;50.804;12.866;2023-02-22T00:42:44;10.20;;;7.40;;
49193;SDS011;35029;50.804;12.866;2023-02-22T00:45:12;8.57;;;5.72;;
49193;SDS011;35029;50.804;12.866;2023-02-22T00:47:39;9.57;;;7.45;;
49193;SDS011;35029;50.804;12.866;2023-02-22T00:50:06;10.60;;;7.15;;
49193;SDS011;35029;50.804;12.866;2023-02-22T00:52:34;8.90;;;7.70;;
49193;SDS011;35029;50.804;12.866;2023-02-22T00:55:00;9.25;;;7.15;;
49193;SDS011;35029;50.804;12.866;2023-02-22T00:57:26;8.88;;;6.85;;
49193;SDS011;35029;50.804;12.866;2023-02-22T00:59:52;9.50;;;7.00;;
49193;SDS011;35029;50.804;12.866;2023-02-22T01:02:17;9.27;;;7.00;;
49193;SDS011;35029;50.804;12.866;2023-02-22T01:04:45;11.20;;;8.25;;
49193;SDS011;35029;50.804;12.866;2023-02-22T01:07:11;8.77;;;7.18;;
49193;SDS011;35029;50.804;12.866;2023-02-22T01:09:38;10.55;;;7.90;;
49193;SDS011;35029;50.804;12.866;2023-02-22T01:12:06;11.30;;;8.38;;
49193;SDS011;35029;50.804;12.866;2023-02-22T01:14:32;10.77;;;8.18;;
49193;SDS011;35029;50.804;12.866;2023-02-22T01:16:59;12.82;;;9.60;;
49193;SDS011;35029;50.804;12.866;2023-02-22T01:19:25;11.35;;;8.45;;
49193;SDS011;35029;50.804;12.866;2023-02-22T01:21:50;15.27;;;9.27;;
49193;SDS011;35029;50.804;12.866;2023-02-22T01:24:16;13.32;;;9.10;;
49193;SDS011;35029;50.804;12.866;2023-02-22T01:26:42;15.07;;;8.82;;
49193;SDS011;35029;50.804;12.866;2023-02-22T01:29:13;14.40;;;9.70;;
49193;SDS011;35029;50.804;12.866;2023-02-22T01:31:40;15.45;;;10.52;;
49193;SDS011;35029;50.804;12.866;2023-02-22T01:34:09;15.43;;;10.82;;
49193;SDS011;35029;50.804;12.866;2023-02-22T01:36:35;17.48;;;10.93;;
49193;SDS011;35029;50.804;12.866;2023-02-22T01:39:01;15.00;;;10.10;;
49193;SDS011;35029;50.804;12.866;2023-02-22T01:41:28;15.43;;;10.80;;
49193;SDS011;35029;50.804;12.866;2023-02-22T01:43:53;15.63;;;11.38;;
49193;SDS011;35029;50.804;12.866;2023-02-22T01:46:20;16.55;;;11.15;;
49193;SDS011;35029;50.804;12.866;2023-02-22T01:48:52;15.73;;;10.82;;
49193;SDS011;35029;50.804;12.866;2023-02-22T01:51:24;13.93;;;10.70;;
49193;SDS011;35029;50.804;12.866;2023-02-22T01:56:31;16.08;;;10.63;;
49193;SDS011;35029;50.804;12.866;2023-02-22T01:59:01;18.83;;;12.95;;
49193;SDS011;35029;50.804;12.866;2023-02-22T02:01:30;16.92;;;12.10;;
49193;SDS011;35029;50.804;12.866;2023-02-22T02:03:58;16.60;;;11.85;;
49193;SDS011;35029;50.804;12.866;2023-02-22T02:06:27;20.42;;;12.20;;
49193;SDS011;35029;50.804;12.866;2023-02-22T02:09:03;15.40;;;11.13;;
49193;SDS011;35029;50.804;12.866;2023-02-22T02:11:37;17.08;;;11.75;;
49193;SDS011;35029;50.804;12.866;2023-02-22T02:14:05;13.35;;;10.48;;
49193;SDS011;35029;50.804;12.866;2023-02-22T02:16:37;14.48;;;11.40;;
49193;SDS011;35029;50.804;12.866;2023-02-22T02:19:07;14.13;;;11.00;;
49193;SDS011;35029;50.804;12.866;2023-02-22T02:27:24;13.70;;;10.27;;
49193;SDS011;35029;50.804;12.866;2023-02-22T02:32:44;12.55;;;9.75;;
49193;SDS011;35029;50.804;12.866;2023-02-22T02:38:28;16.55;;;11.07;;
49193;SDS011;35029;50.804;12.866;2023-02-22T02:49:03;15.27;;;10.48;;
49193;SDS011;35029;50.804;12.866;2023-02-22T02:51:39;13.85;;;10.32;;
49193;SDS011;35029;50.804;12.866;2023-02-22T02:54:09;13.25;;;10.63;;
49193;SDS011;35029;50.804;12.866;2023-02-22T02:56:37;15.25;;;11.45;;
49193;SDS011;35029;50.804;12.866;2023-02-22T02:59:02;17.63;;;11.15;;
49193;SDS011;35029;50.804;12.866;2023-02-22T03:04:20;13.52;;;9.90;;
49193;SDS011;35029;50.804;12.866;2023-02-22T03:09:37;16.23;;;11.05;;
49193;SDS011;35029;50.804;12.866;2023-02-22T03:12:15;14.80;;;10.82;;
49193;SDS011;35029;50.804;12.866;2023-02-22T03:15:00;14.32;;;10.77;;
49193;SDS011;35029;50.804;12.866;2023-02-22T03:17:50;15.32;;;10.45;;
49193;SDS011;35029;50.804;12.866;2023-02-22T03:20:29;13.70;;;10.00;;
49193;SDS011;35029;50.804;12.866;2023-02-22T03:23:12;16.55;;;11.63;;
49193;SDS011;35029;50.804;12.866;2023-02-22T03:25:42;17.60;;;11.50;;
49193;SDS011;35029;50.804;12.866;2023-02-22T03:28:15;15.77;;;10.98;;
49193;SDS011;35029;50.804;12.866;2023-02-22T03:30:48;17.73;;;11.68;;
49193;SDS011;35029;50.804;12.866;2023-02-22T03:34:01;16.35;;;11.18;;
49193;SDS011;35029;50.804;12.866;2023-02-22T03:38:46;14.95;;;10.45;;
49193;SDS011;35029;50.804;12.866;2023-02-22T03:41:14;15.65;;;11.63;;
49193;SDS011;35029;50.804;12.866;2023-02-22T03:43:48;13.77;;;10.60;;
49193;SDS011;35029;50.804;12.866;2023-02-22T03:46:19;16.45;;;11.00;;
49193;SDS011;35029;50.804;12.866;2023-02-22T03:51:27;13.23;;;9.45;;
49193;SDS011;35029;50.804;12.866;2023-02-22T03:53:57;16.15;;;12.13;;
49193;SDS011;35029;50.804;12.866;2023-02-22T03:56:29;12.17;;;9.07;;
49193;SDS011;35029;50.804;12.866;2023-02-22T03:59:04;18.30;;;11.25;;
49193;SDS011;35029;50.804;12.866;2023-02-22T04:01:33;14.55;;;10.32;;
49193;SDS011;35029;50.804;12.866;2023-02-22T04:03:59;14.93;;;10.00;;
49193;SDS011;35029;50.804;12.866;2023-02-22T04:06:26;15.05;;;10.73;;
49193;SDS011;35029;50.804;12.866;2023-02-22T04:08:53;16.13;;;11.00;;
49193;SDS011;35029;50.804;12.866;2023-02-22T04:11:19;17.80;;;12.32;;
49193;SDS011;35029;50.804;12.866;2023-02-22T04:13:45;19.35;;;12.32;;
49193;SDS011;35029;50.804;12.866;2023-02-22T04:16:11;16.33;;;11.60;;
49193;SDS011;35029;50.804;12.866;2023-02-22T04:18:37;14.05;;;10.20;;
49193;SDS011;35029;50.804;12.866;2023-02-22T04:21:04;16.75;;;10.80;;
49193;SDS011;35029;50.804;12.866;2023-02-22T04:23:37;13.50;;;10.32;;
49193;SDS011;35029;50.804;12.866;2023-02-22T04:26:03;17.45;;;10.85;;
49193;SDS011;35029;50.804;12.866;2023-02-22T04:28:29;15.52;;;10.02;;
49193;SDS011;35029;50.804;12.866;2023-02-22T04:31:05;19.48;;;12.45;;
49193;SDS011;35029;50.804;12.866;2023-02-22T04:33:31;19.52;;;13.05;;
49193;SDS011;35029;50.804;12.866;2023-02-22T04:35:57;15.23;;;11.23;;
49193;SDS011;35029;50.804;12.866;2023-02-22T04:38:23;18.73;;;13.00;;
49193;SDS011;35029;50.804;12.866;2023-02-22T04:40:52;17.35;;;12.73;;
49193;SDS011;35029;50.804;12.866;2023-02-22T04:43:19;16.20;;;11.73;;
49193;SDS011;35029;50.804;12.866;2023-02-22T04:45:46;23.35;;;15.43;;
49193;SDS011;35029;50.804;12.866;2023-02-22T04:48:12;23.10;;;15.43;;
49193;SDS011;35029;50.804;12.866;2023-02-22T04:50:38;24.95;;;15.30;;
49193;SDS011;35029;50.804;12.866;2023-02-22T04:53:04;19.17;;;11.93;;
49193;SDS011;35029;50.804;12.866;2023-02-22T04:55:30;15.18;;;10.85;;
49193;SDS011;35029;50.804;12.866;2023-02-22T04:57:56;16.45;;;11.43;;
49193;SDS011;35029;50.804;12.866;2023-02-22T05:00:21;15.52;;;11.43;;
49193;SDS011;35029;50.804;12.866;2023-02-22T05:02:53;18.73;;;12.80;;
49193;SDS011;35029;50.804;12.866;2023-02-22T05:05:19;19.48;;;12.32;;
49193;SDS011;35029;50.804;12.866;2023-02-22T05:07:46;16.15;;;12.18;;
49193;SDS011;35029;50.804;12.866;2023-02-22T05:10:13;15.50;;;11.43;;
49193;SDS011;35029;50.804;12.866;2023-02-22T05:12:39;20.70;;;13.98;;
49193;SDS011;35029;50.804;12.866;2023-02-22T05:15:05;20.20;;;12.68;;
49193;SDS011;35029;50.804;12.866;2023-02-22T05:17:32;17.85;;;12.13;;
49193;SDS011;35029;50.804;12.866;2023-02-22T05:19:58;16.08;;;11.98;;
49193;SDS011;35029;50.804;12.866;2023-02-22T05:22:24;18.55;;;11.98;;
49193;SDS011;35029;50.804;12.866;2023-02-22T05:24:49;15.85;;;11.48;;
49193;SDS011;35029;50.804;12.866;2023-02-22T05:27:18;18.42;;;12.82;;
49193;SDS011;35029;50.804;12.866;2023-02-22T05:29:45;17.48;;;11.77;;
49193;SDS011;35029;50.804;12.866;2023-02-22T05:32:10;15.85;;;11.48;;
49193;SDS011;35029;50.804;12.866;2023-02-22T05:34:37;18.40;;;12.40;;
49193;SDS011;35029;50.804;12.866;2023-02-22T05:37:03;17.90;;;12.75;;
49193;SDS011;35029;50.804;12.866;2023-02-22T05:39:29;16.30;;;12.07;;
49193;SDS011;35029;50.804;12.866;2023-02-22T05:41:55;17.42;;;13.57;;
49193;SDS011;35029;50.804;12.866;2023-02-22T05:44:21;18.33;;;11.73;;
49193;SDS011;35029;50.804;12.866;2023-02-22T05:46:47;22.15;;;13.63;;
49193;SDS011;35029;50.804;12.866;2023-02-22T05:49:12;16.90;;;12.23;;
49193;SDS011;35029;50.804;12.866;2023-02-22T05:51:38;19.85;;;13.02;;
49193;SDS011;35029;50.804;12.866;2023-02-22T05:54:04;18.88;;;11.35;;
49193;SDS011;35029;50.804;12.866;2023-02-22T05:56:29;18.83;;;12.70;;
49193;SDS011;35029;50.804;12.866;2023-02-22T05:58:57;16.75;;;11.63;;
49193;SDS011;35029;50.804;12.866;2023-02-22T06:01:22;19.75;;;12.30;;
49193;SDS011;35029;50.804;12.866;2023-02-22T06:03:49;16.95;;;12.40;;
49193;SDS011;35029;50.804;12.866;2023-02-22T06:06:15;17.42;;;12.27;;
49193;SDS011;35029;50.804;12.866;2023-02-22T06:08:42;17.73;;;12.38;;
49193;SDS011;35029;50.804;12.866;2023-02-22T06:11:08;18.55;;;13.43;;
49193;SDS011;35029;50.804;12.866;2023-02-22T06:13:34;18.95;;;12.63;;
49193;SDS011;35029;50.804;12.866;2023-02-22T06:16:02;16.67;;;11.63;;
49193;SDS011;35029;50.804;12.866;2023-02-22T06:18:28;19.63;;;11.93;;
49193;SDS011;35029;50.804;12.866;2023-02-22T06:20:55;16.10;;;11.68;;
49193;SDS011;35029;50.804;12.866;2023-02-22T06:23:22;16.50;;;12.30;;
49193;SDS011;35029;50.804;12.866;2023-02-22T06:25:48;16.98;;;11.10;;
49193;SDS011;35029;50.804;12.866;2023-02-22T06:28:13;19.05;;;12.35;;
49193;SDS011;35029;50.804;12.866;2023-02-22T06:30:40;19.83;;;13.90;;
49193;SDS011;35029;50.804;12.866;2023-02-22T06:33:08;17.83;;;12.27;;
49193;SDS011;35029;50.804;12.866;2023-02-22T06:35:35;17.60;;;12.65;;
49193;SDS011;35029;50.804;12.866;2023-02-22T06:38:02;16.90;;;12.00;;
49193;SDS011;35029;50.804;12.866;2023-02-22T06:40:29;17.58;;;11.85;;
49193;SDS011;35029;50.804;12.866;2023-02-22T06:42:55;18.35;;;11.60;;
49193;SDS011;35029;50.804;12.866;2023-02-22T06:45:22;17.42;;;11.20;;
49193;SDS011;35029;50.804;12.866;2023-02-22T06:47:48;18.17;;;12.82;;
49193;SDS011;35029;50.804;12.866;2023-02-22T06:50:26;21.38;;;13.48;;
49193;SDS011;35029;50.804;12.866;2023-02-22T06:52:53;17.27;;;12.07;;
49193;SDS011;35029;50.804;12.866;2023-02-22T06:55:21;19.02;;;12.20;;
49193;SDS011;35029;50.804;12.866;2023-02-22T06:57:49;18.15;;;12.45;;
49193;SDS011;35029;50.804;12.866;2023-02-22T07:00:15;16.70;;;11.75;;
49193;SDS011;35029;50.804;12.866;2023-02-22T07:02:44;15.02;;;11.27;;
49193;SDS011;35029;50.804;12.866;2023-02-22T07:05:12;15.35;;;11.02;;
49193;SDS011;35029;50.804;12.866;2023-02-22T07:07:41;15.70;;;11.85;;
49193;SDS011;35029;50.804;12.866;2023-02-22T07:10:07;20.38;;;12.15;;
49193;SDS011;35029;50.804;12.866;2023-02-22T07:12:40;15.10;;;11.00;;
49193;SDS011;35029;50.804;12.866;2023-02-22T07:15:06;16.48;;;10.90;;
49193;SDS011;35029;50.804;12.866;2023-02-22T07:17:31;14.27;;;10.20;;
49193;SDS011;35029;50.804;12.866;2023-02-22T07:19:57;14.23;;;10.85;;
49193;SDS011;35029;50.804;12.866;2023-02-22T07:22:23;15.10;;;10.90;;
49193;SDS011;35029;50.804;12.866;2023-02-22T07:24:49;15.32;;;11.88;;
49193;SDS011;35029;50.804;12.866;2023-02-22T07:27:14;18.50;;;12.13;;
49193;SDS011;35029;50.804;12.866;2023-02-22T07:29:41;17.75;;;12.80;;
49193;SDS011;35029;50.804;12.866;2023-02-22T07:32:07;18.13;;;12.45;;
49193;SDS011;35029;50.804;12.866;2023-02-22T07:34:34;16.48;;;11.45;;
49193;SDS011;35029;50.804;12.866;2023-02-22T07:36:59;17.10;;;11.40;;
49193;SDS011;35029;50.804;12.866;2023-02-22T07:39:25;15.07;;;10.43;;
49193;SDS011;35029;50.804;12.866;2023-02-22T07:41:51;15.68;;;10.75;;
49193;SDS011;35029;50.804;12.866;2023-02-22T07:44:21;16.50;;;10.70;;
49193;SDS011;35029;50.804;12.866;2023-02-22T07:46:47;17.30;;;10.95;;
49193;SDS011;35029;50.804;12.866;2023-02-22T07:49:14;16.20;;;10.07;;
49193;SDS011;35029;50.804;12.866;2023-02-22T07:51:40;15.05;;;10.40;;
49193;SDS011;35029;50.804;12.866;2023-02-22T07:54:06;14.98;;;10.77;;
49193;SDS011;35029;50.804;12.866;2023-02-22T07:56:31;16.63;;;11.98;;
49193;SDS011;35029;50.804;12.866;2023-02-22T07:58:57;14.90;;;10.63;;
49193;SDS011;35029;50.804;12.866;2023-02-22T08:01:22;16.60;;;10.73;;
49193;SDS011;35029;50.804;12.866;2023-02-22T08:03:49;12.32;;;9.15;;
49193;SDS011;35029;50.804;12.866;2023-02-22T08:06:14;12.43;;;9.73;;
49193;SDS011;35029;50.804;12.866;2023-02-22T08:08:40;14.90;;;9.77;;
49193;SDS011;35029;50.804;12.866;2023-02-22T08:11:06;11.40;;;8.65;;
49193;SDS011;35029;50.804;12.866;2023-02-22T08:13:32;11.55;;;9.43;;
49193;SDS011;35029;50.804;12.866;2023-02-22T08:15:58;11.85;;;8.23;;
49193;SDS011;35029;50.804;12.866;2023-02-22T08:18:24;11.73;;;9.18;;
49193;SDS011;35029;50.804;12.866;2023-02-22T08:20:51;12.98;;;9.52;;
49193;SDS011;35029;50.804;12.866;2023-02-22T08:23:18;12.65;;;9.18;;
49193;SDS011;35029;50.804;12.866;2023-02-22T08:25:45;15.63;;;10.73;;
49193;SDS011;35029;50.804;12.866;2023-02-22T08:28:15;14.57;;;10.77;;
49193;SDS011;35029;50.804;12.866;2023-02-22T08:30:45;15.35;;;10.50;;
49193;SDS011;35029;50.804;12.866;2023-02-22T08:33:13;16.08;;;10.77;;
49193;SDS011;35029;50.804;12.866;2023-02-22T08:35:41;14.82;;;10.43;;
49193;SDS011;35029;50.804;12.866;2023-02-22T08:38:07;13.55;;;9.70;;
49193;SDS011;35029;50.804;12.866;2023-02-22T08:40:40;12.90;;;9.68;;
49193;SDS011;35029;50.804;12.866;2023-02-22T08:43:06;13.98;;;11.45;;
49193;SDS011;35029;50.804;12.866;2023-02-22T08:45:32;12.32;;;9.55;;
49193;SDS011;35029;50.804;12.866;2023-02-22T08:47:57;11.98;;;8.85;;
49193;SDS011;35029;50.804;12.866;2023-02-22T08:50:25;13.48;;;9.57;;
49193;SDS011;35029;50.804;12.866;2023-02-22T08:52:53;12.35;;;8.98;;
49193;SDS011;35029;50.804;12.866;2023-02-22T08:55:21;9.88;;;8.10;;
49193;SDS011;35029;50.804;12.866;2023-02-22T08:57:47;13.90;;;8.77;;
49193;SDS011;35029;50.804;12.866;2023-02-22T09:00:12;12.25;;;9.20;;
49193;SDS011;35029;50.804;12.866;2023-02-22T09:02:40;11.40;;;8.35;;
49193;SDS011;35029;50.804;12.866;2023-02-22T09:05:05;11.43;;;8.93;;
49193;SDS011;35029;50.804;12.866;2023-02-22T09:07:33;10.70;;;8.52;;
49193;SDS011;35029;50.804;12.866;2023-02-22T09:09:58;11.10;;;8.18;;
49193;SDS011;35029;50.804;12.866;2023-02-22T09:12:25;11.93;;;8.88;;
49193;SDS011;35029;50.804;12.866;2023-02-22T09:14:50;14.90;;;9.73;;
49193;SDS011;35029;50.804;12.866;2023-02-22T09:17:16;13.45;;;9.52;;
49193;SDS011;35029;50.804;12.866;2023-02-22T09:19:42;12.32;;;9.45;;
49193;SDS011;35029;50.804;12.866;2023-02-22T09:22:09;10.95;;;8.52;;
49193;SDS011;35029;50.804;12.866;2023-02-22T09:24:36;12.18;;;9.10;;
49193;SDS011;35029;50.804;12.866;2023-02-22T09:27:07;12.45;;;7.93;;
49193;SDS011;35029;50.804;12.866;2023-02-22T09:29:34;16.52;;;10.05;;
49193;SDS011;35029;50.804;12.866;2023-02-22T09:32:00;11.32;;;8.27;;
49193;SDS011;35029;50.804;12.866;2023-02-22T09:34:25;13.82;;;9.05;;
49193;SDS011;35029;50.804;12.866;2023-02-22T09:36:54;11.13;;;8.07;;
49193;SDS011;35029;50.804;12.866;2023-02-22T09:39:21;11.70;;;8.48;;
49193;SDS011;35029;50.804;12.866;2023-02-22T09:44:34;8.63;;;6.78;;
49193;SDS011;35029;50.804;12.866;2023-02-22T09:47:22;10.27;;;8.02;;
49193;SDS011;35029;50.804;12.866;2023-02-22T09:50:01;11.20;;;7.10;;
49193;SDS011;35029;50.804;12.866;2023-02-22T09:52:41;7.38;;;5.97;;
49193;SDS011;35029;50.804;12.866;2023-02-22T09:55:40;8.73;;;6.70;;
49193;SDS011;35029;50.804;12.866;2023-02-22T10:00:41;8.23;;;6.22;;
49193;SDS011;35029;50.804;12.866;2023-02-22T10:03:32;8.07;;;6.63;;
49193;SDS011;35029;50.804;12.866;2023-02-22T10:06:24;7.57;;;5.70;;
49193;SDS011;35029;50.804;12.866;2023-02-22T10:08:51;7.97;;;5.78;;
49193;SDS011;35029;50.804;12.866;2023-02-22T10:11:27;9.15;;;6.65;;
49193;SDS011;35029;50.804;12.866;2023-02-22T10:22:42;6.97;;;5.32;;
49193;SDS011;35029;50.804;12.866;2023-02-22T10:25:26;6.00;;;5.05;;
49193;SDS011;35029;50.804;12.866;2023-02-22T10:28:00;5.97;;;5.05;;
49193;SDS011;35029;50.804;12.866;2023-02-22T10:30:34;7.90;;;4.85;;
49193;SDS011;35029;50.804;12.866;2023-02-22T10:33:16;4.78;;;4.25;;
49193;SDS011;35029;50.804;12.866;2023-02-22T10:35:46;5.80;;;4.32;;
49193;SDS011;35029;50.804;12.866;2023-02-22T10:43:28;5.90;;;4.15;;
49193;SDS011;35029;50.804;12.866;2023-02-22T10:45:59;3.90;;;3.50;;
49193;SDS011;35029;50.804;12.866;2023-02-22T10:48:28;6.13;;;3.65;;
49193;SDS011;35029;50.804;12.866;2023-02-22T10:50:58;4.75;;;4.25;;
49193;SDS011;35029;50.804;12.866;2023-02-22T10:53:26;5.43;;;4.00;;
49193;SDS011;35029;50.804;12.866;2023-02-22T10:56:13;4.68;;;3.78;;
49193;SDS011;35029;50.804;12.866;2023-02-22T11:06:41;6.60;;;4.43;;
49193;SDS011;35029;50.804;12.866;2023-02-22T11:09:13;4.68;;;3.95;;
49193;SDS011;35029;50.804;12.866;2023-02-22T11:11:40;4.07;;;3.30;;
49193;SDS011;35029;50.804;12.866;2023-02-22T11:14:08;3.40;;;3.10;;
49193;SDS011;35029;50.804;12.866;2023-02-22T11:16:50;3.22;;;2.92;;
49193;SDS011;35029;50.804;12.866;2023-02-22T11:19:20;3.13;;;2.83;;
49193;SDS011;35029;50.804;12.866;2023-02-22T11:21:50;3.35;;;3.03;;
49193;SDS011;35029;50.804;12.866;2023-02-22T11:24:21;7.85;;;3.60;;
49193;SDS011;35029;50.804;12.866;2023-02-22T11:26:56;3.60;;;3.17;;
49193;SDS011;35029;50.804;12.866;2023-02-22T11:29:31;5.30;;;4.18;;
49193;SDS011;35029;50.804;12.866;2023-02-22T11:32:00;7.95;;;4.30;;
49193;SDS011;35029;50.804;12.866;2023-02-22T11:34:37;7.53;;;4.30;;
49193;SDS011;35029;50.804;12.866;2023-02-22T11:39:47;4.78;;;4.28;;
49193;SDS011;35029;50.804;12.866;2023-02-22T11:42:28;4.70;;;3.97;;
49193;SDS011;35029;50.804;12.866;2023-02-22T11:47:51;5.07;;;3.83;;
49193;SDS011;35029;50.804;12.866;2023-02-22T11:50:26;4.82;;;4.30;;
49193;SDS011;35029;50.804;12.866;2023-02-22T11:52:58;4.43;;;4.00;;
49193;SDS011;35029;50.804;12.866;2023-02-22T11:59:14;5.20;;;4.40;;
49193;SDS011;35029;50.804;12.866;2023-02-22T12:01:55;4.55;;;3.97;;
49193;SDS011;35029;50.804;12.866;2023-02-22T12:07:27;5.40;;;4.28;;
49193;SDS011;35029;50.804;12.866;2023-02-22T12:15:37;8.98;;;6.47;;
49193;SDS011;35029;50.804;12.866;2023-02-22T12:18:47;8.88;;;7.00;;
49193;SDS011;35029;50.804;12.866;2023-02-22T12:21:55;7.55;;;5.45;;
49193;SDS011;35029;50.804;12.866;2023-02-22T12:24:26;6.30;;;5.35;;
49193;SDS011;35029;50.804;12.866;2023-02-22T12:27:47;5.95;;;4.47;;
49193;SDS011;35029;50.804;12.866;2023-02-22T12:30:21;5.70;;;4.80;;
49193;SDS011;35029;50.804;12.866;2023-02-22T12:33:01;7.70;;;5.60;;
49193;SDS011;35029;50.804;12.866;2023-02-22T12:35:33;6.40;;;4.40;;
49193;SDS011;35029;50.804;12.866;2023-02-22T12:38:08;5.60;;;4.75;;
49193;SDS011;35029;50.804;12.866;2023-02-22T12:44:45;6.38;;;5.07;;
49193;SDS011;35029;50.804;12.866;2023-02-22T12:46:46;5.88;;;4.60;;
49193;SDS011;35029;50.804;12.866;2023-02-22T12:49:25;4.35;;;3.83;;
49193;SDS011;35029;50.804;12.866;2023-02-22T12:59:56;6.95;;;4.28;;
49193;SDS011;35029;50.804;12.866;2023-02-22T13:04:53;6.53;;;5.03;;
49193;SDS011;35029;50.804;12.866;2023-02-22T13:13:31;6.18;;;4.40;;
49193;SDS011;35029;50.804;12.866;2023-02-22T13:18:47;6.32;;;4.85;;
49193;SDS011;35029;50.804;12.866;2023-02-22T13:21:25;4.47;;;3.38;;
49193;SDS011;35029;50.804;12.866;2023-02-22T13:24:22;5.28;;;4.10;;
49193;SDS011;35029;50.804;12.866;2023-02-22T13:27:03;4.55;;;3.90;;
49193;SDS011;35029;50.804;12.866;2023-02-22T13:29:41;4.88;;;3.95;;
49193;SDS011;35029;50.804;12.866;2023-02-22T13:32:22;4.85;;;4.28;;
49193;SDS011;35029;50.804;12.866;2023-02-22T13:37:34;5.07;;;3.97;;
49193;SDS011;35029;50.804;12.866;2023-02-22T13:49:31;4.15;;;3.45;;
49193;SDS011;35029;50.804;12.866;2023-02-22T13:52:07;3.97;;;3.42;;
49193;SDS011;35029;50.804;12.866;2023-02-22T13:57:17;4.32;;;3.15;;
49193;SDS011;35029;50.804;12.866;2023-02-22T14:03:29;3.92;;;3.50;;
49193;SDS011;35029;50.804;12.866;2023-02-22T14:06:00;4.40;;;2.85;;
49193;SDS011;35029;50.804;12.866;2023-02-22T14:11:39;3.63;;;2.78;;
49193;SDS011;35029;50.804;12.866;2023-02-22T14:16:22;3.08;;;2.67;;
49193;SDS011;35029;50.804;12.866;2023-02-22T14:22:20;4.93;;;3.00;;
49193;SDS011;35029;50.804;12.866;2023-02-22T14:24:49;3.00;;;2.70;;
49193;SDS011;35029;50.804;12.866;2023-02-22T14:27:15;3.08;;;2.78;;
49193;SDS011;35029;50.804;12.866;2023-02-22T14:29:52;2.72;;;2.40;;
49193;SDS011;35029;50.804;12.866;2023-02-22T14:32:28;2.60;;;2.05;;
49193;SDS011;35029;50.804;12.866;2023-02-22T14:34:57;3.03;;;2.70;;
49193;SDS011;35029;50.804;12.866;2023-02-22T14:37:26;3.95;;;2.67;;
49193;SDS011;35029;50.804;12.866;2023-02-22T14:40:01;2.67;;;2.28;;
49193;SDS011;35029;50.804;12.866;2023-02-22T14:42:49;2.92;;;2.17;;
49193;SDS011;35029;50.804;12.866;2023-02-22T14:45:55;2.35;;;2.03;;
49193;SDS011;35029;50.804;12.866;2023-02-22T14:48:29;2.30;;;2.10;;
49193;SDS011;35029;50.804;12.866;2023-02-22T14:51:12;2.20;;;2.00;;
49193;SDS011;35029;50.804;12.866;2023-02-22T14:53:43;3.42;;;2.30;;
49193;SDS011;35029;50.804;12.866;2023-02-22T15:01:33;2.40;;;2.20;;
49193;SDS011;35029;50.804;12.866;2023-02-22T15:04:20;2.75;;;2.17;;
49193;SDS011;35029;50.804;12.866;2023-02-22T15:06:48;2.50;;;2.25;;
49193;SDS011;35029;50.804;12.866;2023-02-22T15:09:19;2.95;;;2.22;;
49193;SDS011;35029;50.804;12.866;2023-02-22T15:11:49;2.65;;;2.42;;
49193;SDS011;35029;50.804;12.866;2023-02-22T15:14:20;2.10;;;1.90;;
49193;SDS011;35029;50.804;12.866;2023-02-22T15:16:49;3.40;;;2.40;;
49193;SDS011;35029;50.804;12.866;2023-02-22T15:19:26;2.30;;;2.10;;
49193;SDS011;35029;50.804;12.866;2023-02-22T15:21:54;3.03;;;2.67;;
49193;SDS011;35029;50.804;12.866;2023-02-22T15:24:26;3.22;;;2.22;;
49193;SDS011;35029;50.804;12.866;2023-02-22T15:26:54;2.70;;;2.20;;
49193;SDS011;35029;50.804;12.866;2023-02-22T15:29:37;2.20;;;2.00;;
49193;SDS011;35029;50.804;12.866;2023-02-22T15:32:18;2.92;;;2.35;;
49193;SDS011;35029;50.804;12.866;2023-02-22T15:35:17;4.13;;;3.45;;
49193;SDS011;35029;50.804;12.866;2023-02-22T15:38:04;4.10;;;3.33;;
49193;SDS011;35029;50.804;12.866;2023-02-22T15:40:36;5.65;;;4.82;;
49193;SDS011;35029;50.804;12.866;2023-02-22T15:43:07;10.82;;;7.70;;
49193;SDS011;35029;50.804;12.866;2023-02-22T15:45:40;11.05;;;8.45;;
49193;SDS011;35029;50.804;12.866;2023-02-22T15:48:07;7.22;;;6.15;;
49193;SDS011;35029;50.804;12.866;2023-02-22T15:50:34;6.25;;;5.45;;
49193;SDS011;35029;50.804;12.866;2023-02-22T15:58:40;3.33;;;3.03;;
49193;SDS011;35029;50.804;12.866;2023-02-22T16:01:01;2.67;;;2.47;;
49193;SDS011;35029;50.804;12.866;2023-02-22T16:03:34;3.17;;;2.80;;
49193;SDS011;35029;50.804;12.866;2023-02-22T16:06:10;3.20;;;2.75;;
49193;SDS011;35029;50.804;12.866;2023-02-22T16:08:54;4.85;;;4.05;;
49193;SDS011;35029;50.804;12.866;2023-02-22T16:11:26;5.05;;;3.55;;
49193;SDS011;35029;50.804;12.866;2023-02-22T16:13:58;4.40;;;4.00;;
49193;SDS011;35029;50.804;12.866;2023-02-22T16:16:35;4.93;;;4.03;;
49193;SDS011;35029;50.804;12.866;2023-02-22T16:19:24;4.55;;;3.92;;
49193;SDS011;35029;50.804;12.866;2023-02-22T16:22:01;5.18;;;4.32;;
49193;SDS011;35029;50.804;12.866;2023-02-22T16:24:30;5.95;;;4.60;;
49193;SDS011;35029;50.804;12.866;2023-02-22T16:27:04;5.30;;;4.80;;
49193;SDS011;35029;50.804;12.866;2023-02-22T16:29:43;4.90;;;4.38;;
49193;SDS011;35029;50.804;12.866;2023-02-22T16:32:25;6.70;;;5.82;;
49193;SDS011;35029;50.804;12.866;2023-02-22T16:34:51;5.72;;;4.80;;
49193;SDS011;35029;50.804;12.866;2023-02-22T16:37:18;5.88;;;4.97;;
49193;SDS011;35029;50.804;12.866;2023-02-22T16:39:48;7.00;;;5.75;;
49193;SDS011;35029;50.804;12.866;2023-02-22T16:42:16;9.30;;;6.93;;
49193;SDS011;35029;50.804;12.866;2023-02-22T16:44:51;7.13;;;5.85;;
49193;SDS011;35029;50.804;12.866;2023-02-22T16:47:18;7.45;;;5.95;;
49193;SDS011;35029;50.804;12.866;2023-02-22T16:49:47;7.28;;;6.57;;
49193;SDS011;35029;50.804;12.866;2023-02-22T16:52:16;7.20;;;5.70;;
49193;SDS011;35029;50.804;12.866;2023-02-22T16:54:43;9.07;;;6.43;;
49193;SDS011;35029;50.804;12.866;2023-02-22T16:57:20;11.05;;;6.25;;
49193;SDS011;35029;50.804;12.866;2023-02-22T16:59:46;7.93;;;6.80;;